sensor_id;sensor_type;location;lat;lon;timestamp;P1;durP1;ratioP1;P2;durP2;ratioP2
77876;SDS011;67251;50.844;7.978;2023-05-29T00:00:02;7.40;;;2.92;;
77876;SDS011;67251;50.844;7.978;2023-05-29T00:02:33;8.25;;;3.10;;
77876;SDS011;67251;50.844;7.978;2023-05-29T00:05:01;8.32;;;2.85;;
77876;SDS011;67251;50.844;7.978;2023-05-29T00:07:30;9.77;;;2.72;;
77876;SDS011;67251;50.844;7.978;2023-05-29T00:09:57;9.50;;;2.85;;
77876;SDS011;67251;50.844;7.978;2023-05-29T00:12:23;7.38;;;2.88;;
77876;SDS011;67251;50.844;7.978;2023-05-29T00:14:48;8.15;;;2.53;;
77876;SDS011;67251;50.844;7.978;2023-05-29T00:17:14;7.65;;;3.13;;
77876;SDS011;67251;50.844;7.978;2023-05-29T00:19:42;7.45;;;2.83;;
77876;SDS011;67251;50.844;7.978;2023-05-29T00:22:08;5.90;;;3.15;;
77876;SDS011;67251;50.844;7.978;2023-05-29T00:24:33;7.97;;;2.90;;
77876;SDS011;67251;50.844;7.978;2023-05-29T00:26:59;7.22;;;2.88;;
77876;SDS011;67251;50.844;7.978;2023-05-29T00:29:24;7.15;;;2.67;;
77876;SDS011;67251;50.844;7.978;2023-05-29T00:31:50;7.55;;;2.58;;
77876;SDS011;67251;50.844;7.978;2023-05-29T00:34:18;9.15;;;3.10;;
77876;SDS011;67251;50.844;7.978;2023-05-29T00:36:43;7.45;;;2.42;;
77876;SDS011;67251;50.844;7.978;2023-05-29T00:39:10;7.25;;;2.53;;
77876;SDS011;67251;50.844;7.978;2023-05-29T00:41:35;7.32;;;2.72;;
77876;SDS011;67251;50.844;7.978;2023-05-29T00:44:01;7.57;;;2.60;;
77876;SDS011;67251;50.844;7.978;2023-05-29T00:46:26;7.57;;;2.90;;
77876;SDS011;67251;50.844;7.978;2023-05-29T00:48:52;8.30;;;2.72;;
77876;SDS011;67251;50.844;7.978;2023-05-29T00:51:18;8.23;;;2.97;;
77876;SDS011;67251;50.844;7.978;2023-05-29T00:53:43;6.32;;;2.72;;
77876;SDS011;67251;50.844;7.978;2023-05-29T00:56:10;6.55;;;2.47;;
77876;SDS011;67251;50.844;7.978;2023-05-29T00:58:36;5.88;;;2.42;;
77876;SDS011;67251;50.844;7.978;2023-05-29T01:01:04;7.40;;;2.90;;
77876;SDS011;67251;50.844;7.978;2023-05-29T01:03:30;8.82;;;2.80;;
77876;SDS011;67251;50.844;7.978;2023-05-29T01:05:58;6.20;;;3.08;;
77876;SDS011;67251;50.844;7.978;2023-05-29T01:08:23;7.68;;;3.22;;
77876;SDS011;67251;50.844;7.978;2023-05-29T01:10:50;6.70;;;2.80;;
77876;SDS011;67251;50.844;7.978;2023-05-29T01:13:25;8.85;;;3.35;;
77876;SDS011;67251;50.844;7.978;2023-05-29T01:15:59;7.43;;;2.53;;
77876;SDS011;67251;50.844;7.978;2023-05-29T01:27:36;7.10;;;2.40;;
77876;SDS011;67251;50.844;7.978;2023-05-29T01:30:04;7.85;;;2.63;;
77876;SDS011;67251;50.844;7.978;2023-05-29T01:32:32;6.93;;;2.53;;
77876;SDS011;67251;50.844;7.978;2023-05-29T01:34:59;7.40;;;2.50;;
77876;SDS011;67251;50.844;7.978;2023-05-29T01:37:24;4.82;;;2.10;;
77876;SDS011;67251;50.844;7.978;2023-05-29T01:39:50;7.53;;;2.55;;
77876;SDS011;67251;50.844;7.978;2023-05-29T01:42:15;8.57;;;2.83;;
77876;SDS011;67251;50.844;7.978;2023-05-29T01:44:41;8.70;;;2.97;;
77876;SDS011;67251;50.844;7.978;2023-05-29T01:47:07;7.68;;;3.70;;
77876;SDS011;67251;50.844;7.978;2023-05-29T01:52:55;8.25;;;3.15;;
77876;SDS011;67251;50.844;7.978;2023-05-29T01:55:21;6.32;;;2.67;;
77876;SDS011;67251;50.844;7.978;2023-05-29T01:57:46;6.97;;;3.03;;
77876;SDS011;67251;50.844;7.978;2023-05-29T02:00:12;7.05;;;2.88;;
77876;SDS011;67251;50.844;7.978;2023-05-29T02:02:41;7.03;;;3.30;;
77876;SDS011;67251;50.844;7.978;2023-05-29T02:05:07;8.15;;;3.08;;
77876;SDS011;67251;50.844;7.978;2023-05-29T02:07:35;10.95;;;3.25;;
77876;SDS011;67251;50.844;7.978;2023-05-29T02:10:02;7.63;;;3.20;;
77876;SDS011;67251;50.844;7.978;2023-05-29T02:12:28;9.52;;;2.97;;
77876;SDS011;67251;50.844;7.978;2023-05-29T02:14:54;6.90;;;2.70;;
77876;SDS011;67251;50.844;7.978;2023-05-29T02:17:19;6.80;;;2.70;;
77876;SDS011;67251;50.844;7.978;2023-05-29T02:19:45;7.45;;;3.00;;
77876;SDS011;67251;50.844;7.978;2023-05-29T02:22:11;7.30;;;2.83;;
77876;SDS011;67251;50.844;7.978;2023-05-29T02:24:37;7.85;;;2.58;;
77876;SDS011;67251;50.844;7.978;2023-05-29T02:27:02;6.72;;;3.00;;
77876;SDS011;67251;50.844;7.978;2023-05-29T02:29:28;5.90;;;2.53;;
77876;SDS011;67251;50.844;7.978;2023-05-29T02:31:53;7.00;;;2.92;;
77876;SDS011;67251;50.844;7.978;2023-05-29T02:34:19;6.75;;;2.67;;
77876;SDS011;67251;50.844;7.978;2023-05-29T02:36:47;5.88;;;2.55;;
77876;SDS011;67251;50.844;7.978;2023-05-29T02:39:13;8.65;;;3.15;;
77876;SDS011;67251;50.844;7.978;2023-05-29T02:41:38;7.65;;;2.95;;
77876;SDS011;67251;50.844;7.978;2023-05-29T02:44:04;6.35;;;2.78;;
77876;SDS011;67251;50.844;7.978;2023-05-29T02:46:29;8.95;;;3.10;;
77876;SDS011;67251;50.844;7.978;2023-05-29T02:48:54;6.20;;;2.63;;
77876;SDS011;67251;50.844;7.978;2023-05-29T02:51:20;7.45;;;2.83;;
77876;SDS011;67251;50.844;7.978;2023-05-29T02:53:45;6.07;;;2.47;;
77876;SDS011;67251;50.844;7.978;2023-05-29T02:56:11;9.60;;;3.50;;
77876;SDS011;67251;50.844;7.978;2023-05-29T02:58:37;7.70;;;3.10;;
77876;SDS011;67251;50.844;7.978;2023-05-29T03:01:02;6.65;;;2.63;;
77876;SDS011;67251;50.844;7.978;2023-05-29T03:03:29;7.72;;;2.70;;
77876;SDS011;67251;50.844;7.978;2023-05-29T03:05:54;6.85;;;2.60;;
77876;SDS011;67251;50.844;7.978;2023-05-29T03:08:20;7.28;;;2.63;;
77876;SDS011;67251;50.844;7.978;2023-05-29T03:10:45;8.88;;;2.85;;
77876;SDS011;67251;50.844;7.978;2023-05-29T03:13:12;9.93;;;2.80;;
77876;SDS011;67251;50.844;7.978;2023-05-29T03:15:38;7.47;;;2.85;;
77876;SDS011;67251;50.844;7.978;2023-05-29T03:18:03;7.18;;;2.80;;
77876;SDS011;67251;50.844;7.978;2023-05-29T03:20:29;7.32;;;2.58;;
77876;SDS011;67251;50.844;7.978;2023-05-29T03:22:54;6.75;;;2.60;;
77876;SDS011;67251;50.844;7.978;2023-05-29T03:25:20;6.97;;;3.20;;
77876;SDS011;67251;50.844;7.978;2023-05-29T03:27:46;7.13;;;3.00;;
77876;SDS011;67251;50.844;7.978;2023-05-29T03:30:11;5.50;;;2.80;;
77876;SDS011;67251;50.844;7.978;2023-05-29T03:32:37;8.30;;;2.70;;
77876;SDS011;67251;50.844;7.978;2023-05-29T03:35:02;6.05;;;2.63;;
77876;SDS011;67251;50.844;7.978;2023-05-29T03:37:28;6.65;;;2.47;;
77876;SDS011;67251;50.844;7.978;2023-05-29T03:39:54;6.30;;;2.65;;
77876;SDS011;67251;50.844;7.978;2023-05-29T03:42:20;9.27;;;2.65;;
77876;SDS011;67251;50.844;7.978;2023-05-29T03:44:45;6.35;;;2.72;;
77876;SDS011;67251;50.844;7.978;2023-05-29T03:47:11;10.93;;;3.05;;
77876;SDS011;67251;50.844;7.978;2023-05-29T03:49:37;8.82;;;2.72;;
77876;SDS011;67251;50.844;7.978;2023-05-29T03:52:03;6.65;;;2.78;;
77876;SDS011;67251;50.844;7.978;2023-05-29T03:54:29;5.75;;;2.35;;
77876;SDS011;67251;50.844;7.978;2023-05-29T03:56:54;9.98;;;3.22;;
77876;SDS011;67251;50.844;7.978;2023-05-29T03:59:20;8.13;;;3.00;;
77876;SDS011;67251;50.844;7.978;2023-05-29T04:01:45;7.75;;;3.08;;
77876;SDS011;67251;50.844;7.978;2023-05-29T04:04:11;8.40;;;2.78;;
77876;SDS011;67251;50.844;7.978;2023-05-29T04:06:36;6.78;;;3.00;;
77876;SDS011;67251;50.844;7.978;2023-05-29T04:09:04;7.88;;;3.15;;
77876;SDS011;67251;50.844;7.978;2023-05-29T04:11:31;9.07;;;3.28;;
77876;SDS011;67251;50.844;7.978;2023-05-29T04:13:59;6.80;;;3.15;;
77876;SDS011;67251;50.844;7.978;2023-05-29T04:16:25;6.63;;;3.05;;
77876;SDS011;67251;50.844;7.978;2023-05-29T04:18:50;7.05;;;3.03;;
77876;SDS011;67251;50.844;7.978;2023-05-29T04:21:15;7.40;;;2.80;;
77876;SDS011;67251;50.844;7.978;2023-05-29T04:23:41;7.90;;;2.92;;
77876;SDS011;67251;50.844;7.978;2023-05-29T04:26:06;9.00;;;3.25;;
77876;SDS011;67251;50.844;7.978;2023-05-29T04:28:32;8.02;;;2.83;;
77876;SDS011;67251;50.844;7.978;2023-05-29T04:30:58;8.48;;;3.10;;
77876;SDS011;67251;50.844;7.978;2023-05-29T04:33:23;6.78;;;3.22;;
77876;SDS011;67251;50.844;7.978;2023-05-29T04:35:49;10.50;;;3.22;;
77876;SDS011;67251;50.844;7.978;2023-05-29T04:38:15;8.10;;;3.58;;
77876;SDS011;67251;50.844;7.978;2023-05-29T04:40:41;5.97;;;2.70;;
77876;SDS011;67251;50.844;7.978;2023-05-29T04:43:09;9.57;;;3.42;;
77876;SDS011;67251;50.844;7.978;2023-05-29T04:45:35;8.73;;;2.95;;
77876;SDS011;67251;50.844;7.978;2023-05-29T04:48:02;6.95;;;3.03;;
77876;SDS011;67251;50.844;7.978;2023-05-29T04:50:28;6.88;;;3.00;;
77876;SDS011;67251;50.844;7.978;2023-05-29T04:52:56;6.35;;;2.92;;
77876;SDS011;67251;50.844;7.978;2023-05-29T04:55:22;8.68;;;2.72;;
77876;SDS011;67251;50.844;7.978;2023-05-29T04:57:48;8.48;;;3.00;;
77876;SDS011;67251;50.844;7.978;2023-05-29T05:00:13;9.50;;;2.85;;
77876;SDS011;67251;50.844;7.978;2023-05-29T05:02:42;8.70;;;3.15;;
77876;SDS011;67251;50.844;7.978;2023-05-29T05:05:08;6.80;;;2.90;;
77876;SDS011;67251;50.844;7.978;2023-05-29T05:07:34;6.05;;;2.92;;
77876;SDS011;67251;50.844;7.978;2023-05-29T05:10:00;7.13;;;2.95;;
77876;SDS011;67251;50.844;7.978;2023-05-29T05:12:26;7.97;;;2.97;;
77876;SDS011;67251;50.844;7.978;2023-05-29T05:14:51;8.07;;;2.92;;
77876;SDS011;67251;50.844;7.978;2023-05-29T05:17:16;8.35;;;3.17;;
77876;SDS011;67251;50.844;7.978;2023-05-29T05:19:42;8.70;;;3.53;;
77876;SDS011;67251;50.844;7.978;2023-05-29T05:22:07;7.93;;;3.35;;
77876;SDS011;67251;50.844;7.978;2023-05-29T05:24:33;9.27;;;3.40;;
77876;SDS011;67251;50.844;7.978;2023-05-29T05:26:59;9.80;;;3.35;;
77876;SDS011;67251;50.844;7.978;2023-05-29T05:29:25;6.57;;;2.92;;
77876;SDS011;67251;50.844;7.978;2023-05-29T05:31:50;7.25;;;3.20;;
77876;SDS011;67251;50.844;7.978;2023-05-29T05:34:16;7.85;;;3.45;;
77876;SDS011;67251;50.844;7.978;2023-05-29T05:36:41;6.95;;;3.03;;
77876;SDS011;67251;50.844;7.978;2023-05-29T05:39:07;7.40;;;3.42;;
77876;SDS011;67251;50.844;7.978;2023-05-29T05:41:32;10.40;;;3.42;;
77876;SDS011;67251;50.844;7.978;2023-05-29T05:43:57;9.15;;;2.88;;
77876;SDS011;67251;50.844;7.978;2023-05-29T05:46:23;8.88;;;3.30;;
77876;SDS011;67251;50.844;7.978;2023-05-29T05:48:48;7.20;;;3.47;;
77876;SDS011;67251;50.844;7.978;2023-05-29T05:51:14;10.55;;;4.00;;
77876;SDS011;67251;50.844;7.978;2023-05-29T05:53:39;8.48;;;3.22;;
77876;SDS011;67251;50.844;7.978;2023-05-29T05:56:05;10.50;;;3.78;;
77876;SDS011;67251;50.844;7.978;2023-05-29T05:58:31;7.40;;;3.22;;
77876;SDS011;67251;50.844;7.978;2023-05-29T06:00:56;9.18;;;3.63;;
77876;SDS011;67251;50.844;7.978;2023-05-29T06:03:22;7.20;;;3.47;;
77876;SDS011;67251;50.844;7.978;2023-05-29T06:05:47;9.25;;;4.30;;
77876;SDS011;67251;50.844;7.978;2023-05-29T06:08:13;6.90;;;3.08;;
77876;SDS011;67251;50.844;7.978;2023-05-29T06:10:40;10.00;;;3.47;;
77876;SDS011;67251;50.844;7.978;2023-05-29T06:13:05;6.60;;;3.03;;
77876;SDS011;67251;50.844;7.978;2023-05-29T06:15:31;7.55;;;3.15;;
77876;SDS011;67251;50.844;7.978;2023-05-29T06:17:56;8.70;;;3.30;;
77876;SDS011;67251;50.844;7.978;2023-05-29T06:20:22;7.65;;;2.95;;
77876;SDS011;67251;50.844;7.978;2023-05-29T06:22:48;11.73;;;3.50;;
77876;SDS011;67251;50.844;7.978;2023-05-29T06:25:16;7.25;;;2.90;;
77876;SDS011;67251;50.844;7.978;2023-05-29T06:27:44;7.53;;;2.85;;
77876;SDS011;67251;50.844;7.978;2023-05-29T06:30:10;5.57;;;2.63;;
77876;SDS011;67251;50.844;7.978;2023-05-29T06:32:36;7.35;;;2.25;;
77876;SDS011;67251;50.844;7.978;2023-05-29T06:35:02;7.00;;;2.55;;
77876;SDS011;67251;50.844;7.978;2023-05-29T06:37:27;6.20;;;2.75;;
77876;SDS011;67251;50.844;7.978;2023-05-29T06:39:53;11.40;;;3.10;;
77876;SDS011;67251;50.844;7.978;2023-05-29T06:42:19;7.13;;;2.83;;
77876;SDS011;67251;50.844;7.978;2023-05-29T06:44:44;7.65;;;2.92;;
77876;SDS011;67251;50.844;7.978;2023-05-29T06:47:09;8.00;;;2.63;;
77876;SDS011;67251;50.844;7.978;2023-05-29T06:49:35;7.63;;;2.88;;
77876;SDS011;67251;50.844;7.978;2023-05-29T06:52:00;7.30;;;2.97;;
77876;SDS011;67251;50.844;7.978;2023-05-29T06:54:25;9.18;;;3.33;;
77876;SDS011;67251;50.844;7.978;2023-05-29T06:56:51;7.00;;;2.90;;
77876;SDS011;67251;50.844;7.978;2023-05-29T06:59:17;6.15;;;2.90;;
77876;SDS011;67251;50.844;7.978;2023-05-29T07:01:42;6.95;;;2.70;;
77876;SDS011;67251;50.844;7.978;2023-05-29T07:04:08;7.63;;;3.00;;
77876;SDS011;67251;50.844;7.978;2023-05-29T07:06:33;7.93;;;3.08;;
77876;SDS011;67251;50.844;7.978;2023-05-29T07:08:58;7.20;;;3.08;;
77876;SDS011;67251;50.844;7.978;2023-05-29T07:11:24;6.85;;;3.25;;
77876;SDS011;67251;50.844;7.978;2023-05-29T07:13:51;7.57;;;2.95;;
77876;SDS011;67251;50.844;7.978;2023-05-29T07:16:18;8.15;;;3.38;;
77876;SDS011;67251;50.844;7.978;2023-05-29T07:18:43;6.82;;;2.95;;
77876;SDS011;67251;50.844;7.978;2023-05-29T07:21:09;7.20;;;2.80;;
77876;SDS011;67251;50.844;7.978;2023-05-29T07:23:35;5.72;;;3.20;;
77876;SDS011;67251;50.844;7.978;2023-05-29T07:26:01;6.45;;;2.80;;
77876;SDS011;67251;50.844;7.978;2023-05-29T07:28:26;6.32;;;3.00;;
77876;SDS011;67251;50.844;7.978;2023-05-29T07:30:51;6.88;;;3.00;;
77876;SDS011;67251;50.844;7.978;2023-05-29T07:33:17;7.03;;;3.17;;
77876;SDS011;67251;50.844;7.978;2023-05-29T07:35:42;5.97;;;2.90;;
77876;SDS011;67251;50.844;7.978;2023-05-29T07:38:08;5.05;;;2.70;;
77876;SDS011;67251;50.844;7.978;2023-05-29T07:40:33;6.63;;;3.35;;
77876;SDS011;67251;50.844;7.978;2023-05-29T07:43:00;7.15;;;3.13;;
77876;SDS011;67251;50.844;7.978;2023-05-29T07:45:25;6.03;;;3.00;;
77876;SDS011;67251;50.844;7.978;2023-05-29T07:47:50;9.23;;;3.25;;
77876;SDS011;67251;50.844;7.978;2023-05-29T07:50:16;6.15;;;3.17;;
77876;SDS011;67251;50.844;7.978;2023-05-29T07:52:42;6.78;;;3.00;;
77876;SDS011;67251;50.844;7.978;2023-05-29T07:55:09;6.72;;;3.15;;
77876;SDS011;67251;50.844;7.978;2023-05-29T07:57:34;7.13;;;3.60;;
77876;SDS011;67251;50.844;7.978;2023-05-29T08:00:00;6.75;;;3.38;;
77876;SDS011;67251;50.844;7.978;2023-05-29T08:02:31;6.88;;;2.85;;
77876;SDS011;67251;50.844;7.978;2023-05-29T08:04:56;6.05;;;2.75;;
77876;SDS011;67251;50.844;7.978;2023-05-29T08:07:21;6.53;;;2.67;;
77876;SDS011;67251;50.844;7.978;2023-05-29T08:09:47;7.25;;;3.22;;
77876;SDS011;67251;50.844;7.978;2023-05-29T08:12:12;5.78;;;2.90;;
77876;SDS011;67251;50.844;7.978;2023-05-29T08:14:37;7.25;;;3.05;;
77876;SDS011;67251;50.844;7.978;2023-05-29T08:17:03;7.10;;;3.42;;
77876;SDS011;67251;50.844;7.978;2023-05-29T08:19:28;6.90;;;3.30;;
77876;SDS011;67251;50.844;7.978;2023-05-29T08:21:54;6.13;;;3.10;;
77876;SDS011;67251;50.844;7.978;2023-05-29T08:24:19;6.97;;;3.40;;
77876;SDS011;67251;50.844;7.978;2023-05-29T08:26:45;6.15;;;2.58;;
77876;SDS011;67251;50.844;7.978;2023-05-29T08:29:10;6.32;;;3.00;;
77876;SDS011;67251;50.844;7.978;2023-05-29T08:31:36;7.40;;;2.92;;
77876;SDS011;67251;50.844;7.978;2023-05-29T08:34:01;8.23;;;3.40;;
77876;SDS011;67251;50.844;7.978;2023-05-29T08:36:27;6.88;;;3.15;;
77876;SDS011;67251;50.844;7.978;2023-05-29T08:38:52;6.50;;;2.75;;
77876;SDS011;67251;50.844;7.978;2023-05-29T08:41:21;7.05;;;3.08;;
77876;SDS011;67251;50.844;7.978;2023-05-29T08:43:52;6.43;;;3.10;;
77876;SDS011;67251;50.844;7.978;2023-05-29T08:46:18;6.13;;;2.95;;
77876;SDS011;67251;50.844;7.978;2023-05-29T08:48:47;5.97;;;2.90;;
77876;SDS011;67251;50.844;7.978;2023-05-29T08:51:15;6.95;;;3.00;;
77876;SDS011;67251;50.844;7.978;2023-05-29T08:53:44;6.22;;;3.10;;
77876;SDS011;67251;50.844;7.978;2023-05-29T08:56:11;6.40;;;3.17;;
77876;SDS011;67251;50.844;7.978;2023-05-29T08:58:36;6.18;;;2.70;;
77876;SDS011;67251;50.844;7.978;2023-05-29T09:01:02;6.93;;;2.72;;
77876;SDS011;67251;50.844;7.978;2023-05-29T09:03:28;5.53;;;2.97;;
77876;SDS011;67251;50.844;7.978;2023-05-29T09:05:57;5.60;;;3.05;;
77876;SDS011;67251;50.844;7.978;2023-05-29T09:08:25;5.90;;;2.42;;
77876;SDS011;67251;50.844;7.978;2023-05-29T09:10:51;5.63;;;2.78;;
77876;SDS011;67251;50.844;7.978;2023-05-29T09:13:17;6.43;;;2.80;;
77876;SDS011;67251;50.844;7.978;2023-05-29T09:15:42;6.53;;;2.55;;
77876;SDS011;67251;50.844;7.978;2023-05-29T09:18:08;7.20;;;2.90;;
77876;SDS011;67251;50.844;7.978;2023-05-29T09:20:34;7.05;;;2.63;;
77876;SDS011;67251;50.844;7.978;2023-05-29T09:23:01;6.10;;;2.75;;
77876;SDS011;67251;50.844;7.978;2023-05-29T09:25:30;7.45;;;2.75;;
77876;SDS011;67251;50.844;7.978;2023-05-29T09:28:03;5.93;;;2.90;;
77876;SDS011;67251;50.844;7.978;2023-05-29T09:30:45;6.78;;;3.03;;
77876;SDS011;67251;50.844;7.978;2023-05-29T09:33:14;5.72;;;2.80;;
77876;SDS011;67251;50.844;7.978;2023-05-29T09:35:42;8.85;;;3.10;;
77876;SDS011;67251;50.844;7.978;2023-05-29T09:38:12;5.68;;;2.35;;
77876;SDS011;67251;50.844;7.978;2023-05-29T09:40:42;5.75;;;2.58;;
77876;SDS011;67251;50.844;7.978;2023-05-29T09:45:42;5.55;;;2.70;;
77876;SDS011;67251;50.844;7.978;2023-05-29T09:48:12;7.18;;;2.97;;
77876;SDS011;67251;50.844;7.978;2023-05-29T09:50:39;6.20;;;3.20;;
77876;SDS011;67251;50.844;7.978;2023-05-29T09:53:18;7.57;;;2.80;;
77876;SDS011;67251;50.844;7.978;2023-05-29T09:55:48;4.93;;;2.53;;
77876;SDS011;67251;50.844;7.978;2023-05-29T09:58:15;6.10;;;2.90;;
77876;SDS011;67251;50.844;7.978;2023-05-29T10:00:42;7.78;;;3.15;;
77876;SDS011;67251;50.844;7.978;2023-05-29T10:03:09;6.30;;;3.05;;
77876;SDS011;67251;50.844;7.978;2023-05-29T10:05:39;7.82;;;2.97;;
77876;SDS011;67251;50.844;7.978;2023-05-29T10:08:05;5.13;;;2.67;;
77876;SDS011;67251;50.844;7.978;2023-05-29T10:10:35;6.32;;;3.30;;
77876;SDS011;67251;50.844;7.978;2023-05-29T10:13:04;7.45;;;3.45;;
77876;SDS011;67251;50.844;7.978;2023-05-29T10:15:31;6.80;;;2.75;;
77876;SDS011;67251;50.844;7.978;2023-05-29T10:18:02;6.45;;;2.95;;
77876;SDS011;67251;50.844;7.978;2023-05-29T10:20:29;8.25;;;3.45;;
77876;SDS011;67251;50.844;7.978;2023-05-29T10:22:59;7.50;;;3.22;;
77876;SDS011;67251;50.844;7.978;2023-05-29T10:25:29;8.20;;;3.47;;
77876;SDS011;67251;50.844;7.978;2023-05-29T10:27:56;6.70;;;2.67;;
77876;SDS011;67251;50.844;7.978;2023-05-29T10:30:36;6.30;;;2.90;;
77876;SDS011;67251;50.844;7.978;2023-05-29T10:36:12;7.10;;;3.20;;
77876;SDS011;67251;50.844;7.978;2023-05-29T10:38:44;7.30;;;2.95;;
77876;SDS011;67251;50.844;7.978;2023-05-29T10:43:53;7.75;;;3.08;;
77876;SDS011;67251;50.844;7.978;2023-05-29T10:46:19;5.85;;;2.72;;
77876;SDS011;67251;50.844;7.978;2023-05-29T10:48:44;7.10;;;2.90;;
77876;SDS011;67251;50.844;7.978;2023-05-29T10:51:31;7.10;;;2.92;;
77876;SDS011;67251;50.844;7.978;2023-05-29T10:53:56;6.25;;;2.65;;
77876;SDS011;67251;50.844;7.978;2023-05-29T10:56:23;5.45;;;2.42;;
77876;SDS011;67251;50.844;7.978;2023-05-29T10:58:53;6.65;;;2.80;;
77876;SDS011;67251;50.844;7.978;2023-05-29T11:01:23;7.43;;;3.20;;
77876;SDS011;67251;50.844;7.978;2023-05-29T11:03:53;6.38;;;2.75;;
77876;SDS011;67251;50.844;7.978;2023-05-29T11:06:40;5.93;;;2.30;;
77876;SDS011;67251;50.844;7.978;2023-05-29T11:09:06;7.30;;;2.90;;
77876;SDS011;67251;50.844;7.978;2023-05-29T11:12:09;6.38;;;2.67;;
77876;SDS011;67251;50.844;7.978;2023-05-29T11:14:46;6.63;;;2.70;;
77876;SDS011;67251;50.844;7.978;2023-05-29T11:19:57;6.97;;;2.50;;
77876;SDS011;67251;50.844;7.978;2023-05-29T11:22:33;5.50;;;2.50;;
77876;SDS011;67251;50.844;7.978;2023-05-29T11:25:06;5.43;;;2.70;;
77876;SDS011;67251;50.844;7.978;2023-05-29T11:27:32;7.75;;;2.78;;
77876;SDS011;67251;50.844;7.978;2023-05-29T11:29:59;7.57;;;3.20;;
77876;SDS011;67251;50.844;7.978;2023-05-29T11:32:25;6.13;;;2.17;;
77876;SDS011;67251;50.844;7.978;2023-05-29T11:34:53;5.85;;;2.33;;
77876;SDS011;67251;50.844;7.978;2023-05-29T11:37:21;6.68;;;2.67;;
77876;SDS011;67251;50.844;7.978;2023-05-29T11:39:49;8.40;;;2.67;;
77876;SDS011;67251;50.844;7.978;2023-05-29T11:42:16;6.88;;;2.50;;
77876;SDS011;67251;50.844;7.978;2023-05-29T11:44:41;6.82;;;2.50;;
77876;SDS011;67251;50.844;7.978;2023-05-29T11:47:07;6.38;;;2.97;;
77876;SDS011;67251;50.844;7.978;2023-05-29T11:49:34;9.30;;;2.55;;
77876;SDS011;67251;50.844;7.978;2023-05-29T11:52:05;7.32;;;2.58;;
77876;SDS011;67251;50.844;7.978;2023-05-29T11:54:38;6.07;;;2.50;;
77876;SDS011;67251;50.844;7.978;2023-05-29T11:57:04;8.02;;;2.65;;
77876;SDS011;67251;50.844;7.978;2023-05-29T11:59:34;8.20;;;2.53;;
77876;SDS011;67251;50.844;7.978;2023-05-29T12:04:28;5.55;;;2.22;;
77876;SDS011;67251;50.844;7.978;2023-05-29T12:06:54;8.20;;;2.63;;
77876;SDS011;67251;50.844;7.978;2023-05-29T12:09:23;5.43;;;2.40;;
77876;SDS011;67251;50.844;7.978;2023-05-29T12:11:50;7.18;;;2.63;;
77876;SDS011;67251;50.844;7.978;2023-05-29T12:14:16;6.88;;;2.38;;
77876;SDS011;67251;50.844;7.978;2023-05-29T12:16:41;5.78;;;2.38;;
77876;SDS011;67251;50.844;7.978;2023-05-29T12:19:07;6.35;;;2.17;;
77876;SDS011;67251;50.844;7.978;2023-05-29T12:21:33;6.25;;;2.20;;
77876;SDS011;67251;50.844;7.978;2023-05-29T12:23:59;6.63;;;2.50;;
77876;SDS011;67251;50.844;7.978;2023-05-29T12:26:25;6.20;;;2.58;;
77876;SDS011;67251;50.844;7.978;2023-05-29T12:28:51;6.82;;;2.17;;
77876;SDS011;67251;50.844;7.978;2023-05-29T12:31:29;6.18;;;2.45;;
77876;SDS011;67251;50.844;7.978;2023-05-29T12:34:02;7.38;;;2.53;;
77876;SDS011;67251;50.844;7.978;2023-05-29T12:36:33;9.40;;;2.63;;
77876;SDS011;67251;50.844;7.978;2023-05-29T12:38:58;9.95;;;2.53;;
77876;SDS011;67251;50.844;7.978;2023-05-29T12:41:26;6.07;;;2.30;;
77876;SDS011;67251;50.844;7.978;2023-05-29T12:43:52;5.97;;;1.88;;
77876;SDS011;67251;50.844;7.978;2023-05-29T12:46:22;8.25;;;2.45;;
77876;SDS011;67251;50.844;7.978;2023-05-29T12:48:48;6.30;;;2.42;;
77876;SDS011;67251;50.844;7.978;2023-05-29T12:51:14;7.82;;;2.38;;
77876;SDS011;67251;50.844;7.978;2023-05-29T12:53:42;10.18;;;2.50;;
77876;SDS011;67251;50.844;7.978;2023-05-29T12:56:08;6.85;;;2.28;;
77876;SDS011;67251;50.844;7.978;2023-05-29T12:58:33;5.93;;;2.40;;
77876;SDS011;67251;50.844;7.978;2023-05-29T13:00:58;6.30;;;2.50;;
77876;SDS011;67251;50.844;7.978;2023-05-29T13:03:24;6.38;;;2.28;;
77876;SDS011;67251;50.844;7.978;2023-05-29T13:05:50;6.13;;;2.20;;
77876;SDS011;67251;50.844;7.978;2023-05-29T13:08:16;10.02;;;2.00;;
77876;SDS011;67251;50.844;7.978;2023-05-29T13:10:42;8.20;;;2.25;;
77876;SDS011;67251;50.844;7.978;2023-05-29T13:13:09;6.00;;;2.17;;
77876;SDS011;67251;50.844;7.978;2023-05-29T13:15:35;7.07;;;2.35;;
77876;SDS011;67251;50.844;7.978;2023-05-29T13:18:01;5.20;;;1.65;;
77876;SDS011;67251;50.844;7.978;2023-05-29T13:20:26;7.70;;;2.33;;
77876;SDS011;67251;50.844;7.978;2023-05-29T13:22:52;7.40;;;2.47;;
77876;SDS011;67251;50.844;7.978;2023-05-29T13:25:19;7.28;;;2.45;;
77876;SDS011;67251;50.844;7.978;2023-05-29T13:27:47;7.60;;;2.40;;
77876;SDS011;67251;50.844;7.978;2023-05-29T13:30:14;7.32;;;2.35;;
77876;SDS011;67251;50.844;7.978;2023-05-29T13:32:41;6.00;;;2.08;;
77876;SDS011;67251;50.844;7.978;2023-05-29T13:35:07;9.57;;;2.58;;
77876;SDS011;67251;50.844;7.978;2023-05-29T13:37:33;6.03;;;1.90;;
77876;SDS011;67251;50.844;7.978;2023-05-29T13:39:59;6.60;;;1.90;;
77876;SDS011;67251;50.844;7.978;2023-05-29T13:42:24;6.68;;;2.20;;
77876;SDS011;67251;50.844;7.978;2023-05-29T13:44:50;8.25;;;2.47;;
77876;SDS011;67251;50.844;7.978;2023-05-29T13:47:15;8.63;;;2.90;;
77876;SDS011;67251;50.844;7.978;2023-05-29T13:49:41;8.57;;;2.33;;
77876;SDS011;67251;50.844;7.978;2023-05-29T13:52:07;5.75;;;2.10;;
77876;SDS011;67251;50.844;7.978;2023-05-29T13:54:33;4.45;;;1.48;;
77876;SDS011;67251;50.844;7.978;2023-05-29T13:57:02;7.45;;;2.78;;
77876;SDS011;67251;50.844;7.978;2023-05-29T13:59:28;5.80;;;1.92;;
77876;SDS011;67251;50.844;7.978;2023-05-29T14:01:55;6.03;;;2.10;;
77876;SDS011;67251;50.844;7.978;2023-05-29T14:04:21;5.43;;;2.03;;
77876;SDS011;67251;50.844;7.978;2023-05-29T14:06:46;5.07;;;2.22;;
77876;SDS011;67251;50.844;7.978;2023-05-29T14:09:12;7.07;;;2.30;;
77876;SDS011;67251;50.844;7.978;2023-05-29T14:11:38;6.97;;;2.30;;
77876;SDS011;67251;50.844;7.978;2023-05-29T14:14:04;6.25;;;2.30;;
77876;SDS011;67251;50.844;7.978;2023-05-29T14:16:31;5.03;;;2.13;;
77876;SDS011;67251;50.844;7.978;2023-05-29T14:18:57;5.45;;;2.10;;
77876;SDS011;67251;50.844;7.978;2023-05-29T14:21:23;8.93;;;1.98;;
77876;SDS011;67251;50.844;7.978;2023-05-29T14:23:48;6.30;;;2.13;;
77876;SDS011;67251;50.844;7.978;2023-05-29T14:26:14;6.45;;;2.22;;
77876;SDS011;67251;50.844;7.978;2023-05-29T14:28:44;5.95;;;2.03;;
77876;SDS011;67251;50.844;7.978;2023-05-29T14:31:10;7.68;;;2.28;;
77876;SDS011;67251;50.844;7.978;2023-05-29T14:33:35;8.65;;;2.53;;
77876;SDS011;67251;50.844;7.978;2023-05-29T14:36:01;5.93;;;2.03;;
77876;SDS011;67251;50.844;7.978;2023-05-29T14:38:27;8.75;;;2.10;;
77876;SDS011;67251;50.844;7.978;2023-05-29T14:40:54;5.97;;;2.10;;
77876;SDS011;67251;50.844;7.978;2023-05-29T14:43:20;6.63;;;2.17;;
77876;SDS011;67251;50.844;7.978;2023-05-29T14:45:45;6.68;;;2.22;;
77876;SDS011;67251;50.844;7.978;2023-05-29T14:48:12;5.47;;;1.83;;
77876;SDS011;67251;50.844;7.978;2023-05-29T14:50:37;4.13;;;1.58;;
77876;SDS011;67251;50.844;7.978;2023-05-29T14:53:03;7.88;;;2.10;;
77876;SDS011;67251;50.844;7.978;2023-05-29T14:55:31;5.93;;;2.20;;
77876;SDS011;67251;50.844;7.978;2023-05-29T14:58:02;5.55;;;2.00;;
77876;SDS011;67251;50.844;7.978;2023-05-29T15:00:29;8.23;;;2.67;;
77876;SDS011;67251;50.844;7.978;2023-05-29T15:02:54;6.10;;;1.92;;
77876;SDS011;67251;50.844;7.978;2023-05-29T15:05:22;6.13;;;2.10;;
77876;SDS011;67251;50.844;7.978;2023-05-29T15:08:07;6.53;;;2.35;;
77876;SDS011;67251;50.844;7.978;2023-05-29T15:10:33;9.10;;;2.30;;